Terminal Aerodrome Forecast
Issued by NWS Duluth, MN

Home | Current Version | Previous Version | Text Only | Print | Product List | Glossary On
Versions: 1 2 3 4 5 6 7 8 9 10 11 12 13 14 15 16 17 18 19 20 21 22 23 24
663
FTUS43 KDLH 160539
TAFINL
TAF
KINL 160539Z 1606/1706 22003KT P6SM SCT250
     FM162000 14003KT P6SM SCT250
     FM170400 VRB02KT 6SM BR SCT250=

USA.gov is the U.S. government's official web portal to all federal, state and local government web resources and services.